| time (UTC) | temp F | wind direction | speed knots | gust knots | rain 1hr in | rain 24hr in | rain mn in | humidity % | barometer mb |
| 20260507185502 | 64 | 139 | 4.3 | 0.0 | 0.00 | 0.00 | 0.00 | 61 | 1010.0 |
| 20260507175502 | 64 | 129 | 4.3 | 0.0 | 0.00 | 0.00 | 0.00 | 68 | 1011.0 |
| 20260507165502 | 66 | 118 | 3.5 | 0.0 | 0.00 | 0.00 | 0.00 | 65 | 1011.0 |
| 20260507155502 | 67 | 106 | 3.5 | 0.0 | 0.00 | 0.00 | 0.00 | 62 | 1011.0 |
| 20260507145502 | 69 | 104 | 2.6 | 0.0 | 0.00 | 0.00 | 0.00 | 59 | 1011.0 |
| 20260507135502 | 73 | 50 | 2.6 | 0.0 | 0.00 | 0.00 | 0.00 | 55 | 1010.0 |
| 20260507125502 | 74 | 217 | 0.9 | 0.0 | 0.00 | 0.00 | 0.00 | 47 | 1011.0 |
| 20260507115502 | 74 | 233 | 2.6 | 0.0 | 0.00 | 0.00 | 0.00 | 47 | 1011.0 |
| 20260507105501 | 73 | 298 | 3.5 | 0.0 | 0.00 | 0.00 | 0.00 | 46 | 1011.0 |
| 20260507095502 | 73 | 295 | 4.3 | 0.0 | 0.00 | 0.00 | 0.00 | 49 | 1011.0 |
| 20260507085502 | 72 | 290 | 4.3 | 0.0 | 0.00 | 0.00 | 0.00 | 52 | 1011.0 |
| 20260507075502 | 70 | 277 | 5.2 | 0.0 | 0.00 | 0.00 | 0.00 | 56 | 1011.0 |
| 20260507065502 | 69 | 260 | 5.2 | 0.0 | 0.00 | 0.00 | 0.00 | 59 | 1011.0 |
| 20260507055503 | 67 | 251 | 5.2 | 0.0 | 0.00 | 0.00 | 0.00 | 64 | 1011.0 |
| 20260507045502 | 65 | 247 | 4.3 | 0.0 | 0.00 | 0.00 | 0.00 | 68 | 1011.0 |
| 20260507035502 | 62 | 259 | 2.6 | 0.0 | 0.00 | 0.00 | 0.00 | 73 | 1011.0 |
| 20260507025502 | 60 | 285 | 1.7 | 0.0 | 0.00 | 0.00 | 0.00 | 77 | 1011.0 |
| 20260507015502 | 57 | 320 | 1.7 | 0.0 | 0.00 | 0.00 | 0.00 | 83 | 1011.0 |
| 20260507005502 | 55 | 321 | 2.6 | 0.0 | 0.00 | 0.00 | 0.00 | 88 | 1011.0 |
| 20260506235502 | 55 | 315 | 1.7 | 0.0 | 0.00 | 0.00 | 0.00 | 89 | 1011.0 |
| 20260506225501 | 56 | 318 | 1.7 | 0.0 | 0.00 | 0.00 | 0.00 | 89 | 1011.0 |
| 20260506215502 | 56 | 5 | 0.9 | 0.0 | 0.00 | 0.00 | 0.00 | 87 | 1010.0 |
| 20260506205501 | 57 | 168 | 1.7 | 0.0 | 0.00 | 0.00 | 0.00 | 86 | 1010.0 |
| 20260506195502 | 57 | 155 | 4.3 | 0.0 | 0.00 | 0.00 | 0.00 | 82 | 1011.0 |